Pagrindinis puslapis
METAR-TAF:

METAR-TAF

Oro uostai :

Doha, Kataras

platuma: 25-15-40N, ilguma: 051-33-54E, Aukštis: 11 m

Dabartinis oras

Ataskaita buvo paskelbta 18 minutes, ne 00:00 UTC
Vėjas 6 kt iš Vakarų/Šiaurės Vakarų
Temperatūra 28°C
Drėgmė 51%
Slėgis 1010 hPa
Matomumas 10 km arba daugiau
nėra debesų žemiau 1500 m ir nėra kamuolinių lietaus debesų

METAR: OTBD 200000Z AUTO 30006KT CAVOK 28/17 Q1010 NOSIG

Laikas: 03:18 (00:18 UTC)

Prognozė

Ataskaita buvo paskelbta 1 valandą ir 17 minutes, ne 23:01 UTC
Prognozė galioja nuo 20 metu 00 UTC su 21 metu 06 UTC
Vėjas 5 kt iš Šiaurės Vakarų
Matomumas: 8000 m
Tapsmas
nuo 20 metu 08 UTC su 20 metu 10 UTC
Vėjas 10 kt iš Šiaurės Rytų
Tapsmas
nuo 20 metu 17 UTC su 20 metu 19 UTC
Vėjas 4 kt iš Šiaurės Vakarų

TAF: OTBD 192301Z 2000/2106 31005KT 8000 NSC BECMG 2008/2010 05010KT BECMG 2017/2019 32004KT

Orai ataskaitas ir orų prognozės (METAR, TAF).

turimą stotys yra geltonos ir raudonos taškus žemėlapyje.

Perkelti pele per norėdami pamatyti stoties vardą.

Tada spustelėkite, norėdami matyti oro stebėjimo ir prognozės.

Norėdami pakeisti žemėlapį: spustelėkite ant žalios mygtukų su juodo kryžiaus žemyn,; žalią mygtuką su brūkšneliu, jei norite nutolinti; arba žalių rodyklių gretimoms žemėlapius.


METAR-TAF: